sensor_id;sensor_type;location;lat;lon;timestamp;P1;durP1;ratioP1;P2;durP2;ratioP2
20173;SDS011;10246;50.620;7.232;2022-11-20T00:01:11;20.40;;;12.40;;
20173;SDS011;10246;50.620;7.232;2022-11-20T00:03:39;20.70;;;11.30;;
20173;SDS011;10246;50.620;7.232;2022-11-20T00:06:07;21.23;;;12.33;;
20173;SDS011;10246;50.620;7.232;2022-11-20T00:08:35;24.60;;;13.20;;
20173;SDS011;10246;50.620;7.232;2022-11-20T00:11:04;21.77;;;12.60;;
20173;SDS011;10246;50.620;7.232;2022-11-20T00:13:31;22.83;;;12.37;;
20173;SDS011;10246;50.620;7.232;2022-11-20T00:15:58;21.53;;;12.20;;
20173;SDS011;10246;50.620;7.232;2022-11-20T00:18:26;20.77;;;12.83;;
20173;SDS011;10246;50.620;7.232;2022-11-20T00:20:59;22.27;;;12.80;;
20173;SDS011;10246;50.620;7.232;2022-11-20T00:23:27;19.50;;;11.73;;
20173;SDS011;10246;50.620;7.232;2022-11-20T00:25:53;22.47;;;12.00;;
20173;SDS011;10246;50.620;7.232;2022-11-20T00:28:22;21.97;;;12.53;;
20173;SDS011;10246;50.620;7.232;2022-11-20T00:30:48;21.27;;;12.53;;
20173;SDS011;10246;50.620;7.232;2022-11-20T00:33:15;19.93;;;11.90;;
20173;SDS011;10246;50.620;7.232;2022-11-20T00:35:42;21.83;;;11.97;;
20173;SDS011;10246;50.620;7.232;2022-11-20T00:38:08;21.73;;;12.87;;
20173;SDS011;10246;50.620;7.232;2022-11-20T00:40:35;23.23;;;13.17;;
20173;SDS011;10246;50.620;7.232;2022-11-20T00:43:02;21.97;;;12.57;;
20173;SDS011;10246;50.620;7.232;2022-11-20T00:45:30;18.00;;;10.80;;
20173;SDS011;10246;50.620;7.232;2022-11-20T00:47:57;19.47;;;12.00;;
20173;SDS011;10246;50.620;7.232;2022-11-20T00:50:23;22.13;;;12.53;;
20173;SDS011;10246;50.620;7.232;2022-11-20T00:52:50;25.97;;;13.77;;
20173;SDS011;10246;50.620;7.232;2022-11-20T00:55:17;20.53;;;12.50;;
20173;SDS011;10246;50.620;7.232;2022-11-20T00:57:44;22.70;;;12.63;;
20173;SDS011;10246;50.620;7.232;2022-11-20T01:00:10;21.17;;;11.80;;
20173;SDS011;10246;50.620;7.232;2022-11-20T01:02:39;22.17;;;12.10;;
20173;SDS011;10246;50.620;7.232;2022-11-20T01:05:05;20.00;;;11.33;;
20173;SDS011;10246;50.620;7.232;2022-11-20T01:07:32;20.33;;;12.23;;
20173;SDS011;10246;50.620;7.232;2022-11-20T01:09:59;22.57;;;12.87;;
20173;SDS011;10246;50.620;7.232;2022-11-20T01:12:26;21.13;;;12.07;;
20173;SDS011;10246;50.620;7.232;2022-11-20T01:14:53;21.83;;;12.87;;
20173;SDS011;10246;50.620;7.232;2022-11-20T01:17:20;20.73;;;12.37;;
20173;SDS011;10246;50.620;7.232;2022-11-20T01:19:49;21.97;;;12.37;;
20173;SDS011;10246;50.620;7.232;2022-11-20T01:22:16;19.67;;;12.40;;
20173;SDS011;10246;50.620;7.232;2022-11-20T01:24:43;20.77;;;12.93;;
20173;SDS011;10246;50.620;7.232;2022-11-20T01:27:09;20.70;;;12.53;;
20173;SDS011;10246;50.620;7.232;2022-11-20T01:29:37;19.67;;;11.80;;
20173;SDS011;10246;50.620;7.232;2022-11-20T01:32:04;18.17;;;11.50;;
20173;SDS011;10246;50.620;7.232;2022-11-20T01:34:31;20.87;;;11.63;;
20173;SDS011;10246;50.620;7.232;2022-11-20T01:36:59;20.23;;;12.60;;
20173;SDS011;10246;50.620;7.232;2022-11-20T01:39:26;18.77;;;11.63;;
20173;SDS011;10246;50.620;7.232;2022-11-20T01:41:53;22.33;;;12.73;;
20173;SDS011;10246;50.620;7.232;2022-11-20T01:47:26;22.77;;;12.27;;
20173;SDS011;10246;50.620;7.232;2022-11-20T01:49:56;22.10;;;12.53;;
20173;SDS011;10246;50.620;7.232;2022-11-20T01:52:32;21.33;;;12.63;;
20173;SDS011;10246;50.620;7.232;2022-11-20T01:55:04;23.17;;;14.27;;
20173;SDS011;10246;50.620;7.232;2022-11-20T01:57:33;22.80;;;13.93;;
20173;SDS011;10246;50.620;7.232;2022-11-20T02:00:04;23.70;;;13.83;;
20173;SDS011;10246;50.620;7.232;2022-11-20T02:02:33;23.90;;;13.67;;
20173;SDS011;10246;50.620;7.232;2022-11-20T02:05:02;21.97;;;13.53;;
20173;SDS011;10246;50.620;7.232;2022-11-20T02:07:39;21.50;;;12.33;;
20173;SDS011;10246;50.620;7.232;2022-11-20T02:10:07;23.53;;;13.50;;
20173;SDS011;10246;50.620;7.232;2022-11-20T02:12:34;23.60;;;13.63;;
20173;SDS011;10246;50.620;7.232;2022-11-20T02:15:18;24.10;;;14.23;;
20173;SDS011;10246;50.620;7.232;2022-11-20T02:17:45;23.50;;;12.80;;
20173;SDS011;10246;50.620;7.232;2022-11-20T02:20:11;25.20;;;14.30;;
20173;SDS011;10246;50.620;7.232;2022-11-20T02:22:41;21.93;;;13.30;;
20173;SDS011;10246;50.620;7.232;2022-11-20T02:25:17;19.73;;;12.30;;
20173;SDS011;10246;50.620;7.232;2022-11-20T02:27:44;22.43;;;13.23;;
20173;SDS011;10246;50.620;7.232;2022-11-20T02:30:11;26.37;;;13.97;;
20173;SDS011;10246;50.620;7.232;2022-11-20T02:32:39;24.40;;;14.20;;
20173;SDS011;10246;50.620;7.232;2022-11-20T02:35:06;21.57;;;13.10;;
20173;SDS011;10246;50.620;7.232;2022-11-20T02:37:36;20.60;;;12.20;;
20173;SDS011;10246;50.620;7.232;2022-11-20T02:40:06;24.37;;;13.10;;
20173;SDS011;10246;50.620;7.232;2022-11-20T02:42:35;20.47;;;12.93;;
20173;SDS011;10246;50.620;7.232;2022-11-20T02:45:02;23.33;;;13.37;;
20173;SDS011;10246;50.620;7.232;2022-11-20T02:47:30;23.27;;;14.00;;
20173;SDS011;10246;50.620;7.232;2022-11-20T02:49:57;21.90;;;13.30;;
20173;SDS011;10246;50.620;7.232;2022-11-20T02:52:23;22.40;;;12.73;;
20173;SDS011;10246;50.620;7.232;2022-11-20T02:54:51;23.03;;;13.10;;
20173;SDS011;10246;50.620;7.232;2022-11-20T02:57:18;23.40;;;13.77;;
20173;SDS011;10246;50.620;7.232;2022-11-20T02:59:46;22.90;;;12.43;;
20173;SDS011;10246;50.620;7.232;2022-11-20T03:02:13;20.20;;;12.20;;
20173;SDS011;10246;50.620;7.232;2022-11-20T03:04:39;23.33;;;13.17;;
20173;SDS011;10246;50.620;7.232;2022-11-20T03:07:07;20.27;;;11.60;;
20173;SDS011;10246;50.620;7.232;2022-11-20T03:09:34;18.27;;;10.97;;
20173;SDS011;10246;50.620;7.232;2022-11-20T03:12:01;20.83;;;11.60;;
20173;SDS011;10246;50.620;7.232;2022-11-20T03:14:28;20.47;;;12.10;;
20173;SDS011;10246;50.620;7.232;2022-11-20T03:16:56;22.03;;;12.27;;
20173;SDS011;10246;50.620;7.232;2022-11-20T03:19:23;20.37;;;12.97;;
20173;SDS011;10246;50.620;7.232;2022-11-20T03:21:50;20.50;;;12.40;;
20173;SDS011;10246;50.620;7.232;2022-11-20T03:24:17;22.20;;;12.10;;
20173;SDS011;10246;50.620;7.232;2022-11-20T03:26:44;23.53;;;13.40;;
20173;SDS011;10246;50.620;7.232;2022-11-20T03:29:10;23.40;;;13.77;;
20173;SDS011;10246;50.620;7.232;2022-11-20T03:31:38;24.00;;;12.67;;
20173;SDS011;10246;50.620;7.232;2022-11-20T03:34:08;23.47;;;12.90;;
20173;SDS011;10246;50.620;7.232;2022-11-20T03:36:37;21.97;;;12.50;;
20173;SDS011;10246;50.620;7.232;2022-11-20T03:39:04;23.60;;;14.57;;
20173;SDS011;10246;50.620;7.232;2022-11-20T03:41:31;24.40;;;13.73;;
20173;SDS011;10246;50.620;7.232;2022-11-20T03:44:02;23.00;;;13.40;;
20173;SDS011;10246;50.620;7.232;2022-11-20T03:46:31;24.50;;;14.03;;
20173;SDS011;10246;50.620;7.232;2022-11-20T03:48:58;22.90;;;14.10;;
20173;SDS011;10246;50.620;7.232;2022-11-20T03:51:27;23.00;;;13.27;;
20173;SDS011;10246;50.620;7.232;2022-11-20T03:53:55;20.40;;;12.37;;
20173;SDS011;10246;50.620;7.232;2022-11-20T03:56:24;21.20;;;12.87;;
20173;SDS011;10246;50.620;7.232;2022-11-20T03:58:52;19.90;;;12.33;;
20173;SDS011;10246;50.620;7.232;2022-11-20T04:01:20;20.63;;;11.63;;
20173;SDS011;10246;50.620;7.232;2022-11-20T04:03:47;22.90;;;12.87;;
20173;SDS011;10246;50.620;7.232;2022-11-20T04:06:15;20.53;;;12.00;;
20173;SDS011;10246;50.620;7.232;2022-11-20T04:08:44;20.47;;;12.53;;
20173;SDS011;10246;50.620;7.232;2022-11-20T04:11:12;19.47;;;11.63;;
20173;SDS011;10246;50.620;7.232;2022-11-20T04:13:41;20.40;;;11.90;;
20173;SDS011;10246;50.620;7.232;2022-11-20T04:16:09;18.83;;;11.60;;
20173;SDS011;10246;50.620;7.232;2022-11-20T04:18:36;21.83;;;12.53;;
20173;SDS011;10246;50.620;7.232;2022-11-20T04:21:03;22.10;;;12.97;;
20173;SDS011;10246;50.620;7.232;2022-11-20T04:23:31;22.87;;;13.50;;
20173;SDS011;10246;50.620;7.232;2022-11-20T04:26:02;25.57;;;14.40;;
20173;SDS011;10246;50.620;7.232;2022-11-20T04:28:29;24.17;;;14.20;;
20173;SDS011;10246;50.620;7.232;2022-11-20T04:31:01;26.30;;;14.07;;
20173;SDS011;10246;50.620;7.232;2022-11-20T04:33:28;24.77;;;13.97;;
20173;SDS011;10246;50.620;7.232;2022-11-20T04:35:59;25.73;;;13.97;;
20173;SDS011;10246;50.620;7.232;2022-11-20T04:38:26;24.33;;;13.57;;
20173;SDS011;10246;50.620;7.232;2022-11-20T04:40:55;23.13;;;13.40;;
20173;SDS011;10246;50.620;7.232;2022-11-20T04:43:24;23.37;;;13.30;;
20173;SDS011;10246;50.620;7.232;2022-11-20T04:45:51;24.77;;;13.33;;
20173;SDS011;10246;50.620;7.232;2022-11-20T04:48:18;21.37;;;12.80;;
20173;SDS011;10246;50.620;7.232;2022-11-20T04:50:45;23.37;;;12.63;;
20173;SDS011;10246;50.620;7.232;2022-11-20T04:53:11;24.70;;;13.70;;
20173;SDS011;10246;50.620;7.232;2022-11-20T04:55:38;22.23;;;13.23;;
20173;SDS011;10246;50.620;7.232;2022-11-20T04:58:05;23.90;;;12.70;;
20173;SDS011;10246;50.620;7.232;2022-11-20T05:00:34;24.10;;;12.83;;
20173;SDS011;10246;50.620;7.232;2022-11-20T05:03:01;24.37;;;13.97;;
20173;SDS011;10246;50.620;7.232;2022-11-20T05:05:28;22.43;;;13.63;;
20173;SDS011;10246;50.620;7.232;2022-11-20T05:07:55;25.17;;;14.40;;
20173;SDS011;10246;50.620;7.232;2022-11-20T05:10:22;25.90;;;14.43;;
20173;SDS011;10246;50.620;7.232;2022-11-20T05:12:49;23.83;;;14.43;;
20173;SDS011;10246;50.620;7.232;2022-11-20T05:15:16;23.33;;;13.73;;
20173;SDS011;10246;50.620;7.232;2022-11-20T05:17:47;22.37;;;12.93;;
20173;SDS011;10246;50.620;7.232;2022-11-20T05:20:14;19.73;;;12.73;;
20173;SDS011;10246;50.620;7.232;2022-11-20T05:22:41;27.67;;;14.30;;
20173;SDS011;10246;50.620;7.232;2022-11-20T05:25:08;25.03;;;14.60;;
20173;SDS011;10246;50.620;7.232;2022-11-20T05:27:35;21.33;;;13.27;;
20173;SDS011;10246;50.620;7.232;2022-11-20T05:30:02;22.43;;;12.87;;
20173;SDS011;10246;50.620;7.232;2022-11-20T05:32:29;23.77;;;13.57;;
20173;SDS011;10246;50.620;7.232;2022-11-20T05:34:57;22.30;;;12.20;;
20173;SDS011;10246;50.620;7.232;2022-11-20T05:37:23;24.20;;;14.07;;
20173;SDS011;10246;50.620;7.232;2022-11-20T05:39:50;26.83;;;14.43;;
20173;SDS011;10246;50.620;7.232;2022-11-20T05:42:17;25.80;;;13.90;;
20173;SDS011;10246;50.620;7.232;2022-11-20T05:44:56;21.67;;;12.87;;
20173;SDS011;10246;50.620;7.232;2022-11-20T05:47:23;29.27;;;16.07;;
20173;SDS011;10246;50.620;7.232;2022-11-20T05:49:49;28.07;;;16.57;;
20173;SDS011;10246;50.620;7.232;2022-11-20T05:52:17;28.70;;;17.03;;
20173;SDS011;10246;50.620;7.232;2022-11-20T05:54:44;30.40;;;15.73;;
20173;SDS011;10246;50.620;7.232;2022-11-20T05:57:11;27.47;;;14.77;;
20173;SDS011;10246;50.620;7.232;2022-11-20T05:59:38;26.87;;;14.70;;
20173;SDS011;10246;50.620;7.232;2022-11-20T06:02:04;26.23;;;15.40;;
20173;SDS011;10246;50.620;7.232;2022-11-20T06:04:31;28.53;;;16.00;;
20173;SDS011;10246;50.620;7.232;2022-11-20T06:06:58;24.23;;;14.27;;
20173;SDS011;10246;50.620;7.232;2022-11-20T06:09:26;28.47;;;16.07;;
20173;SDS011;10246;50.620;7.232;2022-11-20T06:11:52;26.30;;;14.77;;
20173;SDS011;10246;50.620;7.232;2022-11-20T06:14:19;25.87;;;14.30;;
20173;SDS011;10246;50.620;7.232;2022-11-20T06:16:46;26.10;;;14.53;;
20173;SDS011;10246;50.620;7.232;2022-11-20T06:19:13;28.07;;;14.50;;
20173;SDS011;10246;50.620;7.232;2022-11-20T06:21:40;28.00;;;14.33;;
20173;SDS011;10246;50.620;7.232;2022-11-20T06:24:08;28.33;;;13.93;;
20173;SDS011;10246;50.620;7.232;2022-11-20T06:26:37;26.23;;;14.60;;
20173;SDS011;10246;50.620;7.232;2022-11-20T06:29:03;25.53;;;12.73;;
20173;SDS011;10246;50.620;7.232;2022-11-20T06:31:30;22.53;;;13.07;;
20173;SDS011;10246;50.620;7.232;2022-11-20T06:33:59;23.60;;;12.37;;
20173;SDS011;10246;50.620;7.232;2022-11-20T06:36:27;25.90;;;13.37;;
20173;SDS011;10246;50.620;7.232;2022-11-20T06:38:53;25.07;;;12.73;;
20173;SDS011;10246;50.620;7.232;2022-11-20T06:41:20;26.10;;;14.07;;
20173;SDS011;10246;50.620;7.232;2022-11-20T06:43:49;26.83;;;12.90;;
20173;SDS011;10246;50.620;7.232;2022-11-20T06:46:17;26.63;;;14.00;;
20173;SDS011;10246;50.620;7.232;2022-11-20T06:48:44;24.10;;;13.63;;
20173;SDS011;10246;50.620;7.232;2022-11-20T06:51:12;27.83;;;14.27;;
20173;SDS011;10246;50.620;7.232;2022-11-20T06:53:40;29.60;;;13.70;;
20173;SDS011;10246;50.620;7.232;2022-11-20T06:56:08;36.97;;;18.20;;
20173;SDS011;10246;50.620;7.232;2022-11-20T06:58:35;43.40;;;19.03;;
20173;SDS011;10246;50.620;7.232;2022-11-20T07:01:04;30.60;;;15.40;;
20173;SDS011;10246;50.620;7.232;2022-11-20T07:03:32;27.93;;;14.27;;
20173;SDS011;10246;50.620;7.232;2022-11-20T07:06:00;29.53;;;15.17;;
20173;SDS011;10246;50.620;7.232;2022-11-20T07:08:29;28.17;;;15.20;;
20173;SDS011;10246;50.620;7.232;2022-11-20T07:10:56;25.00;;;14.40;;
20173;SDS011;10246;50.620;7.232;2022-11-20T07:13:24;28.10;;;14.37;;
20173;SDS011;10246;50.620;7.232;2022-11-20T07:15:51;26.47;;;14.40;;
20173;SDS011;10246;50.620;7.232;2022-11-20T07:18:19;28.40;;;15.03;;
20173;SDS011;10246;50.620;7.232;2022-11-20T07:20:46;27.83;;;14.07;;
20173;SDS011;10246;50.620;7.232;2022-11-20T07:23:12;25.83;;;13.13;;
20173;SDS011;10246;50.620;7.232;2022-11-20T07:25:39;25.93;;;13.77;;
20173;SDS011;10246;50.620;7.232;2022-11-20T07:28:06;27.67;;;15.23;;
20173;SDS011;10246;50.620;7.232;2022-11-20T07:30:32;28.53;;;14.27;;
20173;SDS011;10246;50.620;7.232;2022-11-20T07:32:59;28.43;;;15.67;;
20173;SDS011;10246;50.620;7.232;2022-11-20T07:35:27;30.93;;;16.57;;
20173;SDS011;10246;50.620;7.232;2022-11-20T07:37:55;28.23;;;15.27;;
20173;SDS011;10246;50.620;7.232;2022-11-20T07:40:21;25.23;;;14.80;;
20173;SDS011;10246;50.620;7.232;2022-11-20T07:42:48;26.57;;;14.00;;
20173;SDS011;10246;50.620;7.232;2022-11-20T07:45:15;26.60;;;14.57;;
20173;SDS011;10246;50.620;7.232;2022-11-20T07:47:42;24.20;;;13.83;;
20173;SDS011;10246;50.620;7.232;2022-11-20T07:50:09;33.00;;;15.40;;
20173;SDS011;10246;50.620;7.232;2022-11-20T07:52:38;26.47;;;14.43;;
20173;SDS011;10246;50.620;7.232;2022-11-20T07:55:05;31.80;;;14.80;;
20173;SDS011;10246;50.620;7.232;2022-11-20T07:57:33;26.83;;;14.43;;
20173;SDS011;10246;50.620;7.232;2022-11-20T08:00:00;24.43;;;13.97;;
20173;SDS011;10246;50.620;7.232;2022-11-20T08:02:27;24.57;;;13.37;;
20173;SDS011;10246;50.620;7.232;2022-11-20T08:04:53;27.60;;;13.87;;
20173;SDS011;10246;50.620;7.232;2022-11-20T08:07:20;28.20;;;14.33;;
20173;SDS011;10246;50.620;7.232;2022-11-20T08:09:48;28.37;;;14.43;;
20173;SDS011;10246;50.620;7.232;2022-11-20T08:12:16;26.03;;;14.40;;
20173;SDS011;10246;50.620;7.232;2022-11-20T08:15:03;30.53;;;16.00;;
20173;SDS011;10246;50.620;7.232;2022-11-20T08:17:30;27.73;;;15.17;;
20173;SDS011;10246;50.620;7.232;2022-11-20T08:19:57;28.00;;;14.77;;
20173;SDS011;10246;50.620;7.232;2022-11-20T08:22:24;33.43;;;17.50;;
20173;SDS011;10246;50.620;7.232;2022-11-20T08:24:52;30.47;;;14.87;;
20173;SDS011;10246;50.620;7.232;2022-11-20T08:27:20;28.03;;;15.23;;
20173;SDS011;10246;50.620;7.232;2022-11-20T08:29:46;27.23;;;14.90;;
20173;SDS011;10246;50.620;7.232;2022-11-20T08:32:13;26.20;;;14.60;;
20173;SDS011;10246;50.620;7.232;2022-11-20T08:34:40;33.40;;;16.13;;
20173;SDS011;10246;50.620;7.232;2022-11-20T08:37:07;36.67;;;18.37;;
20173;SDS011;10246;50.620;7.232;2022-11-20T08:39:33;32.03;;;17.10;;
20173;SDS011;10246;50.620;7.232;2022-11-20T08:42:02;32.00;;;16.67;;
20173;SDS011;10246;50.620;7.232;2022-11-20T08:44:32;30.07;;;14.83;;
20173;SDS011;10246;50.620;7.232;2022-11-20T08:46:59;29.97;;;15.53;;
20173;SDS011;10246;50.620;7.232;2022-11-20T08:49:26;32.47;;;16.13;;
20173;SDS011;10246;50.620;7.232;2022-11-20T08:51:54;33.40;;;17.30;;
20173;SDS011;10246;50.620;7.232;2022-11-20T08:54:21;33.07;;;17.03;;
20173;SDS011;10246;50.620;7.232;2022-11-20T08:56:48;35.07;;;18.30;;
20173;SDS011;10246;50.620;7.232;2022-11-20T08:59:16;36.90;;;17.33;;
20173;SDS011;10246;50.620;7.232;2022-11-20T09:01:42;35.90;;;17.40;;
20173;SDS011;10246;50.620;7.232;2022-11-20T09:04:09;32.90;;;16.57;;
20173;SDS011;10246;50.620;7.232;2022-11-20T09:06:36;32.67;;;17.67;;
20173;SDS011;10246;50.620;7.232;2022-11-20T09:09:03;30.87;;;17.53;;
20173;SDS011;10246;50.620;7.232;2022-11-20T09:11:30;31.73;;;17.10;;
20173;SDS011;10246;50.620;7.232;2022-11-20T09:13:58;31.73;;;17.50;;
20173;SDS011;10246;50.620;7.232;2022-11-20T09:16:26;31.30;;;16.47;;
20173;SDS011;10246;50.620;7.232;2022-11-20T09:18:53;33.63;;;16.87;;
20173;SDS011;10246;50.620;7.232;2022-11-20T09:21:20;32.87;;;17.17;;
20173;SDS011;10246;50.620;7.232;2022-11-20T09:23:47;29.10;;;16.10;;
20173;SDS011;10246;50.620;7.232;2022-11-20T09:26:14;30.17;;;15.90;;
20173;SDS011;10246;50.620;7.232;2022-11-20T09:28:41;30.53;;;15.93;;
20173;SDS011;10246;50.620;7.232;2022-11-20T09:31:08;28.40;;;15.03;;
20173;SDS011;10246;50.620;7.232;2022-11-20T09:33:50;29.00;;;16.07;;
20173;SDS011;10246;50.620;7.232;2022-11-20T09:36:16;30.27;;;16.77;;
20173;SDS011;10246;50.620;7.232;2022-11-20T09:38:44;27.70;;;14.77;;
20173;SDS011;10246;50.620;7.232;2022-11-20T09:41:16;29.40;;;15.53;;
20173;SDS011;10246;50.620;7.232;2022-11-20T09:43:57;27.83;;;13.93;;
20173;SDS011;10246;50.620;7.232;2022-11-20T09:46:28;24.47;;;13.70;;
20173;SDS011;10246;50.620;7.232;2022-11-20T09:49:05;27.93;;;15.83;;
20173;SDS011;10246;50.620;7.232;2022-11-20T09:51:45;25.43;;;14.37;;
20173;SDS011;10246;50.620;7.232;2022-11-20T09:54:19;27.10;;;13.47;;
20173;SDS011;10246;50.620;7.232;2022-11-20T09:56:50;24.60;;;13.23;;
20173;SDS011;10246;50.620;7.232;2022-11-20T09:59:29;24.80;;;13.43;;
20173;SDS011;10246;50.620;7.232;2022-11-20T10:02:05;21.40;;;12.20;;
20173;SDS011;10246;50.620;7.232;2022-11-20T10:04:43;21.97;;;11.73;;
20173;SDS011;10246;50.620;7.232;2022-11-20T10:07:15;22.77;;;12.53;;
20173;SDS011;10246;50.620;7.232;2022-11-20T10:09:49;21.13;;;12.30;;
20173;SDS011;10246;50.620;7.232;2022-11-20T10:12:22;21.27;;;11.37;;
20173;SDS011;10246;50.620;7.232;2022-11-20T10:15:07;19.00;;;11.00;;
20173;SDS011;10246;50.620;7.232;2022-11-20T10:17:48;21.20;;;11.60;;
20173;SDS011;10246;50.620;7.232;2022-11-20T10:20:25;19.63;;;12.00;;
20173;SDS011;10246;50.620;7.232;2022-11-20T10:23:06;18.77;;;11.83;;
20173;SDS011;10246;50.620;7.232;2022-11-20T10:25:52;20.33;;;11.23;;
20173;SDS011;10246;50.620;7.232;2022-11-20T10:28:34;26.50;;;14.43;;
20173;SDS011;10246;50.620;7.232;2022-11-20T10:31:14;23.00;;;12.83;;
20173;SDS011;10246;50.620;7.232;2022-11-20T10:33:51;21.70;;;12.03;;
20173;SDS011;10246;50.620;7.232;2022-11-20T10:36:23;21.30;;;10.97;;
20173;SDS011;10246;50.620;7.232;2022-11-20T10:38:54;19.80;;;10.97;;
20173;SDS011;10246;50.620;7.232;2022-11-20T10:41:27;21.63;;;11.63;;
20173;SDS011;10246;50.620;7.232;2022-11-20T10:44:00;24.93;;;13.83;;
20173;SDS011;10246;50.620;7.232;2022-11-20T10:46:34;21.73;;;12.50;;
20173;SDS011;10246;50.620;7.232;2022-11-20T10:49:09;25.50;;;13.20;;
20173;SDS011;10246;50.620;7.232;2022-11-20T10:51:43;23.00;;;11.67;;
20173;SDS011;10246;50.620;7.232;2022-11-20T10:54:25;21.87;;;12.03;;
20173;SDS011;10246;50.620;7.232;2022-11-20T10:56:59;24.93;;;12.27;;
20173;SDS011;10246;50.620;7.232;2022-11-20T10:59:41;22.00;;;12.43;;
20173;SDS011;10246;50.620;7.232;2022-11-20T11:02:31;25.57;;;13.60;;
20173;SDS011;10246;50.620;7.232;2022-11-20T11:05:04;20.97;;;10.97;;
20173;SDS011;10246;50.620;7.232;2022-11-20T11:07:39;22.43;;;10.93;;
20173;SDS011;10246;50.620;7.232;2022-11-20T11:10:13;20.80;;;11.47;;
20173;SDS011;10246;50.620;7.232;2022-11-20T11:12:43;26.83;;;13.63;;
20173;SDS011;10246;50.620;7.232;2022-11-20T11:15:13;25.37;;;13.30;;
20173;SDS011;10246;50.620;7.232;2022-11-20T11:17:50;26.93;;;13.30;;
20173;SDS011;10246;50.620;7.232;2022-11-20T11:20:17;36.73;;;16.80;;
20173;SDS011;10246;50.620;7.232;2022-11-20T11:22:47;27.67;;;14.53;;
20173;SDS011;10246;50.620;7.232;2022-11-20T11:25:19;29.20;;;14.43;;
20173;SDS011;10246;50.620;7.232;2022-11-20T11:27:47;22.37;;;12.27;;
20173;SDS011;10246;50.620;7.232;2022-11-20T11:30:15;23.77;;;12.70;;
20173;SDS011;10246;50.620;7.232;2022-11-20T11:32:44;25.13;;;13.37;;
20173;SDS011;10246;50.620;7.232;2022-11-20T11:35:19;23.10;;;12.30;;
20173;SDS011;10246;50.620;7.232;2022-11-20T11:37:49;23.13;;;11.33;;
20173;SDS011;10246;50.620;7.232;2022-11-20T11:40:19;20.07;;;11.47;;
20173;SDS011;10246;50.620;7.232;2022-11-20T11:42:50;21.27;;;12.27;;
20173;SDS011;10246;50.620;7.232;2022-11-20T11:45:21;19.57;;;10.97;;
20173;SDS011;10246;50.620;7.232;2022-11-20T11:47:47;22.43;;;11.27;;
20173;SDS011;10246;50.620;7.232;2022-11-20T11:50:17;35.60;;;17.67;;
20173;SDS011;10246;50.620;7.232;2022-11-20T11:52:50;27.47;;;15.03;;
20173;SDS011;10246;50.620;7.232;2022-11-20T11:55:33;27.00;;;14.50;;
20173;SDS011;10246;50.620;7.232;2022-11-20T11:58:09;24.60;;;14.13;;
20173;SDS011;10246;50.620;7.232;2022-11-20T12:00:41;20.77;;;12.27;;
20173;SDS011;10246;50.620;7.232;2022-11-20T12:03:16;23.10;;;11.93;;
20173;SDS011;10246;50.620;7.232;2022-11-20T12:05:48;23.07;;;12.67;;
20173;SDS011;10246;50.620;7.232;2022-11-20T12:08:23;23.70;;;13.30;;
20173;SDS011;10246;50.620;7.232;2022-11-20T12:10:53;22.67;;;13.03;;
20173;SDS011;10246;50.620;7.232;2022-11-20T12:13:26;20.43;;;12.07;;
20173;SDS011;10246;50.620;7.232;2022-11-20T12:16:05;20.17;;;11.30;;
20173;SDS011;10246;50.620;7.232;2022-11-20T12:18:38;19.83;;;11.83;;
20173;SDS011;10246;50.620;7.232;2022-11-20T12:21:07;21.37;;;12.50;;
20173;SDS011;10246;50.620;7.232;2022-11-20T12:23:47;21.10;;;12.10;;
20173;SDS011;10246;50.620;7.232;2022-11-20T12:26:43;21.30;;;11.93;;
20173;SDS011;10246;50.620;7.232;2022-11-20T12:29:21;21.53;;;12.77;;
20173;SDS011;10246;50.620;7.232;2022-11-20T12:35:12;17.63;;;10.63;;
20173;SDS011;10246;50.620;7.232;2022-11-20T12:38:02;24.60;;;12.97;;
20173;SDS011;10246;50.620;7.232;2022-11-20T12:40:57;20.97;;;11.37;;
20173;SDS011;10246;50.620;7.232;2022-11-20T12:43:34;20.70;;;11.90;;
20173;SDS011;10246;50.620;7.232;2022-11-20T12:46:27;21.33;;;11.60;;
20173;SDS011;10246;50.620;7.232;2022-11-20T12:49:12;21.30;;;11.90;;
20173;SDS011;10246;50.620;7.232;2022-11-20T12:51:57;20.70;;;12.10;;
20173;SDS011;10246;50.620;7.232;2022-11-20T12:54:34;22.87;;;12.60;;
20173;SDS011;10246;50.620;7.232;2022-11-20T12:57:15;19.17;;;11.43;;
20173;SDS011;10246;50.620;7.232;2022-11-20T12:59:51;20.53;;;12.03;;
20173;SDS011;10246;50.620;7.232;2022-11-20T13:02:30;20.33;;;12.07;;
20173;SDS011;10246;50.620;7.232;2022-11-20T13:05:17;21.67;;;12.33;;
20173;SDS011;10246;50.620;7.232;2022-11-20T13:07:46;20.77;;;11.43;;
20173;SDS011;10246;50.620;7.232;2022-11-20T13:10:18;24.03;;;12.30;;
20173;SDS011;10246;50.620;7.232;2022-11-20T13:12:51;21.87;;;11.43;;
20173;SDS011;10246;50.620;7.232;2022-11-20T13:15:32;20.03;;;11.57;;
20173;SDS011;10246;50.620;7.232;2022-11-20T13:18:07;19.63;;;11.00;;
20173;SDS011;10246;50.620;7.232;2022-11-20T13:20:36;19.20;;;11.27;;
20173;SDS011;10246;50.620;7.232;2022-11-20T13:23:08;20.63;;;11.50;;
20173;SDS011;10246;50.620;7.232;2022-11-20T13:25:35;17.67;;;11.03;;
20173;SDS011;10246;50.620;7.232;2022-11-20T13:28:05;19.27;;;11.43;;
20173;SDS011;10246;50.620;7.232;2022-11-20T13:30:54;22.17;;;11.90;;
20173;SDS011;10246;50.620;7.232;2022-11-20T13:33:23;17.57;;;11.20;;
20173;SDS011;10246;50.620;7.232;2022-11-20T13:35:56;17.57;;;10.47;;
20173;SDS011;10246;50.620;7.232;2022-11-20T13:38:24;18.73;;;10.87;;
20173;SDS011;10246;50.620;7.232;2022-11-20T13:40:52;20.80;;;12.10;;
20173;SDS011;10246;50.620;7.232;2022-11-20T13:43:26;22.33;;;12.53;;
20173;SDS011;10246;50.620;7.232;2022-11-20T13:46:00;25.30;;;13.10;;
20173;SDS011;10246;50.620;7.232;2022-11-20T13:48:29;24.30;;;12.60;;
20173;SDS011;10246;50.620;7.232;2022-11-20T13:51:03;22.70;;;13.17;;
20173;SDS011;10246;50.620;7.232;2022-11-20T13:53:51;24.33;;;13.73;;
20173;SDS011;10246;50.620;7.232;2022-11-20T13:56:40;26.13;;;15.13;;
20173;SDS011;10246;50.620;7.232;2022-11-20T13:59:20;25.50;;;14.67;;
20173;SDS011;10246;50.620;7.232;2022-11-20T14:01:58;24.90;;;14.27;;
20173;SDS011;10246;50.620;7.232;2022-11-20T14:04:26;21.73;;;13.20;;
20173;SDS011;10246;50.620;7.232;2022-11-20T14:06:58;21.30;;;13.17;;
20173;SDS011;10246;50.620;7.232;2022-11-20T14:09:26;22.03;;;13.33;;
20173;SDS011;10246;50.620;7.232;2022-11-20T14:11:55;26.03;;;14.93;;
20173;SDS011;10246;50.620;7.232;2022-11-20T14:14:24;23.63;;;14.03;;
20173;SDS011;10246;50.620;7.232;2022-11-20T14:16:51;24.23;;;13.60;;
20173;SDS011;10246;50.620;7.232;2022-11-20T14:19:26;21.97;;;11.80;;
20173;SDS011;10246;50.620;7.232;2022-11-20T14:22:06;22.17;;;12.67;;
20173;SDS011;10246;50.620;7.232;2022-11-20T14:24:34;21.23;;;11.97;;
20173;SDS011;10246;50.620;7.232;2022-11-20T14:27:01;20.23;;;11.93;;
20173;SDS011;10246;50.620;7.232;2022-11-20T14:29:32;19.53;;;10.90;;
20173;SDS011;10246;50.620;7.232;2022-11-20T14:32:01;22.07;;;12.73;;
20173;SDS011;10246;50.620;7.232;2022-11-20T14:34:30;17.50;;;11.37;;
20173;SDS011;10246;50.620;7.232;2022-11-20T14:36:59;20.80;;;11.27;;
20173;SDS011;10246;50.620;7.232;2022-11-20T14:39:29;20.93;;;10.90;;
20173;SDS011;10246;50.620;7.232;2022-11-20T14:41:57;19.30;;;11.43;;
20173;SDS011;10246;50.620;7.232;2022-11-20T14:44:25;19.73;;;10.70;;